Time;durP1;ratioP1;P1;durP2;ratioP2;P2;SDS_P1;SDS_P2;PMS_P1;PMS_P2;Temp;Humidity;BMP_temperature;BMP_pressure;BME280_temperature;BME280_humidity;BME280_pressure;Samples;Min_cycle;Max_cycle;Signal;HPM_P1;HPM_P2
2022/05/20 00:02:27;;;;;;;9.40;4.40;;;16.80;66.30;;;;;;5035593;28;20204;-72
2022/05/20 00:04:54;;;;;;;9.23;4.00;;;16.80;66.00;;;;;;5052058;28;20199;-71
2022/05/20 00:07:21;;;;;;;11.93;4.47;;;16.80;66.40;;;;;;5051305;28;20289;-82
2022/05/20 00:09:53;;;;;;;8.80;4.00;;;16.80;66.50;;;;;;5051784;28;20203;-72
2022/05/20 00:12:23;;;;;;;9.07;4.57;;;16.70;66.90;;;;;;5052351;28;20207;-82
2022/05/20 00:14:50;;;;;;;9.03;4.13;;;16.60;66.90;;;;;;5051187;28;20252;-71
2022/05/20 00:17:17;;;;;;;8.73;4.50;;;16.60;66.90;;;;;;5051235;28;20372;-71
2022/05/20 00:19:44;;;;;;;9.07;4.30;;;16.60;67.50;;;;;;5034502;28;20317;-82
2022/05/20 00:22:11;;;;;;;8.33;4.50;;;16.60;66.90;;;;;;5052651;28;20241;-82
2022/05/20 00:25:45;;;;;;;10.63;4.37;;;16.60;67.10;;;;;;5051026;28;20198;-82
2022/05/20 00:27:25;;;;;;;6.50;3.90;;;16.60;67.50;;;;;;5051209;28;20327;-81
2022/05/20 00:29:53;;;;;;;8.10;3.80;;;16.60;67.40;;;;;;5051127;28;20203;-81
2022/05/20 00:32:20;;;;;;;8.77;4.17;;;16.50;67.70;;;;;;5051186;28;20320;-76
2022/05/20 00:34:46;;;;;;;7.90;3.90;;;16.40;67.70;;;;;;5050872;28;20198;-71
2022/05/20 00:37:13;;;;;;;9.90;4.23;;;16.40;68.10;;;;;;5050995;28;20320;-75
2022/05/20 00:39:40;;;;;;;7.97;4.23;;;16.40;68.40;;;;;;5051069;28;20219;-70
2022/05/20 00:42:16;;;;;;;9.73;4.40;;;16.30;68.70;;;;;;5054922;28;20648;-81
2022/05/20 00:44:43;;;;;;;11.10;4.37;;;16.20;69.10;;;;;;5055389;28;20297;-84
2022/05/20 00:47:12;;;;;;;11.07;4.30;;;16.20;69.90;;;;;;5055165;28;20747;-72
2022/05/20 00:49:43;;;;;;;11.53;4.80;;;16.10;70.10;;;;;;5056333;28;20197;-82
2022/05/20 00:52:12;;;;;;;11.23;5.03;;;16.10;70.20;;;;;;5055909;28;20201;-81
2022/05/20 00:54:43;;;;;;;12.50;4.73;;;16.00;70.60;;;;;;5056236;28;20686;-83
2022/05/20 00:57:18;;;;;;;10.13;4.80;;;15.90;71.00;;;;;;5055462;28;20226;-82
2022/05/20 00:59:58;;;;;;;9.13;4.63;;;15.90;71.30;;;;;;5056283;28;20352;-81
2022/05/20 01:02:27;;;;;;;9.90;5.17;;;15.80;71.60;;;;;;5056079;28;20194;-82
2022/05/20 01:04:56;;;;;;;13.67;4.90;;;15.80;72.10;;;;;;5054726;28;20194;-70
2022/05/20 01:07:25;;;;;;;13.43;4.90;;;15.70;72.20;;;;;;5054538;28;20333;-74
2022/05/20 01:09:52;;;;;;;8.73;4.60;;;15.70;72.40;;;;;;5054825;28;20194;-70
2022/05/20 01:12:20;;;;;;;8.90;4.80;;;15.60;72.80;;;;;;5054606;28;20340;-80
2022/05/20 01:14:49;;;;;;;9.83;4.67;;;15.60;73.20;;;;;;5055540;28;20553;-71
2022/05/20 01:17:16;;;;;;;11.17;4.40;;;15.50;73.30;;;;;;5055749;28;20195;-72
2022/05/20 01:19:48;;;;;;;11.63;4.57;;;15.50;74.10;;;;;;5054401;28;20225;-80
2022/05/20 01:22:44;;;;;;;9.47;4.37;;;15.40;74.20;;;;;;5054472;28;20369;-81
2022/05/20 01:25:12;;;;;;;10.03;4.57;;;15.30;74.70;;;;;;5054305;28;20226;-74
2022/05/20 01:27:42;;;;;;;9.73;4.60;;;15.30;75.10;;;;;;5054634;28;20298;-72
2022/05/20 01:30:16;;;;;;;10.33;4.37;;;15.20;75.60;;;;;;5054256;28;20199;-75
2022/05/20 01:32:46;;;;;;;9.67;4.43;;;15.10;75.90;;;;;;5059001;28;20198;-75
2022/05/20 01:35:21;;;;;;;9.03;4.30;;;15.10;76.30;;;;;;5054503;28;20203;-75
2022/05/20 01:37:49;;;;;;;8.23;4.60;;;15.10;76.80;;;;;;5054105;28;20301;-75
2022/05/20 01:40:16;;;;;;;11.47;4.93;;;15.10;77.00;;;;;;5055948;28;20272;-76
2022/05/20 01:42:54;;;;;;;11.67;4.90;;;15.00;77.20;;;;;;5040390;28;20198;-74
2022/05/20 01:45:33;;;;;;;8.70;4.60;;;15.00;77.60;;;;;;5052722;28;20202;-76
2022/05/20 01:48:15;;;;;;;9.37;4.80;;;15.00;78.10;;;;;;5038416;28;20195;-72
2022/05/20 01:50:54;;;;;;;7.93;4.53;;;14.90;78.50;;;;;;5056658;28;20198;-76
2022/05/20 01:53:46;;;;;;;6.93;4.57;;;14.80;79.20;;;;;;5037525;28;20222;-75
2022/05/20 01:56:25;;;;;;;9.53;4.73;;;14.80;79.20;;;;;;5053627;28;20228;-81
2022/05/20 01:59:14;;;;;;;13.00;5.30;;;14.70;79.90;;;;;;5053366;28;20230;-71
2022/05/20 02:01:52;;;;;;;9.80;4.40;;;14.60;80.30;;;;;;5053868;28;20253;-81
2022/05/20 02:04:26;;;;;;;9.53;4.70;;;14.50;80.90;;;;;;5053767;28;20656;-69
2022/05/20 02:07:01;;;;;;;13.10;4.80;;;14.50;81.80;;;;;;5053802;28;20210;-82
2022/05/20 02:09:37;;;;;;;10.93;4.73;;;14.50;82.10;;;;;;5037136;28;20289;-70
2022/05/20 02:12:06;;;;;;;11.83;5.27;;;14.40;82.20;;;;;;5053254;28;20218;-70
2022/05/20 02:14:44;;;;;;;9.03;4.70;;;14.40;82.40;;;;;;5037045;28;20209;-82
2022/05/20 02:17:28;;;;;;;9.10;4.97;;;14.30;83.20;;;;;;5053649;28;20599;-71
2022/05/20 02:20:22;;;;;;;8.63;4.50;;;14.20;83.80;;;;;;5054426;28;20214;-71
2022/05/20 02:22:56;;;;;;;8.97;4.70;;;14.20;84.50;;;;;;5050438;28;20746;-70
2022/05/20 02:25:30;;;;;;;11.73;4.50;;;14.20;84.90;;;;;;5053551;28;20208;-72
2022/05/20 02:28:06;;;;;;;11.07;4.40;;;14.10;85.40;;;;;;5053794;28;20201;-84
2022/05/20 02:30:34;;;;;;;11.60;4.80;;;14.20;85.80;;;;;;5053220;28;20209;-70
2022/05/20 02:33:08;;;;;;;8.17;4.50;;;14.10;85.90;;;;;;5053272;28;20195;-71
2022/05/20 02:35:35;;;;;;;8.13;4.57;;;14.20;87.30;;;;;;5052914;28;20297;-71
2022/05/20 02:38:09;;;;;;;12.30;4.80;;;14.10;86.60;;;;;;5053208;28;20644;-71
2022/05/20 02:40:37;;;;;;;12.07;4.60;;;14.10;87.40;;;;;;5054375;28;20253;-70
2022/05/20 02:43:05;;;;;;;9.47;4.53;;;14.10;87.10;;;;;;5052859;28;20199;-79
2022/05/20 02:45:33;;;;;;;8.00;4.90;;;14.00;87.90;;;;;;5052885;28;20206;-71
2022/05/20 02:48:00;;;;;;;9.33;4.13;;;14.00;88.10;;;;;;5052700;28;20213;-82
2022/05/20 02:50:26;;;;;;;7.83;4.20;;;14.00;88.30;;;;;;5053058;28;20203;-71
2022/05/20 02:52:53;;;;;;;10.60;4.20;;;14.00;88.50;;;;;;5052770;28;20294;-71
2022/05/20 02:55:20;;;;;;;8.20;4.10;;;14.00;88.40;;;;;;5052645;28;20681;-71
2022/05/20 02:57:47;;;;;;;8.03;4.00;;;14.00;88.60;;;;;;5052572;28;20222;-71
2022/05/20 03:05:45;;;;;;;8.13;4.40;;;14.00;89.30;;;;;;5054048;28;20183;-82
2022/05/20 03:08:12;;;;;;;9.67;4.20;;;14.10;90.00;;;;;;5052253;28;20206;-76
2022/05/20 03:10:39;;;;;;;6.33;3.90;;;14.00;89.80;;;;;;5052426;28;20202;-82
2022/05/20 03:13:09;;;;;;;9.50;3.77;;;14.10;89.80;;;;;;5053345;28;20309;-82
2022/05/20 03:15:38;;;;;;;8.27;3.90;;;14.10;89.90;;;;;;5052220;28;20199;-82
2022/05/20 03:18:07;;;;;;;6.97;3.90;;;14.10;90.00;;;;;;5052159;28;20213;-82
2022/05/20 03:20:34;;;;;;;8.07;4.00;;;14.10;90.00;;;;;;5052143;28;20351;-82
2022/05/20 03:23:01;;;;;;;10.13;3.70;;;14.10;90.50;;;;;;5052190;28;20206;-83
2022/05/20 03:25:28;;;;;;;10.57;3.80;;;14.10;90.30;;;;;;5051896;28;20198;-81
2022/05/20 03:27:55;;;;;;;7.53;3.37;;;14.10;90.40;;;;;;5053376;28;20201;-80
2022/05/20 03:30:22;;;;;;;9.63;4.13;;;14.10;90.50;;;;;;5052180;28;20201;-79
2022/05/20 03:32:49;;;;;;;7.40;3.53;;;14.10;90.70;;;;;;5052103;28;20217;-80
2022/05/20 03:35:17;;;;;;;9.73;4.30;;;14.00;90.60;;;;;;5053151;28;20217;-80
2022/05/20 03:37:46;;;;;;;8.23;3.40;;;14.00;90.90;;;;;;5052086;28;20249;-81
2022/05/20 03:40:15;;;;;;;9.00;3.70;;;14.00;90.90;;;;;;5051748;28;20276;-81
2022/05/20 03:42:43;;;;;;;6.87;3.30;;;14.00;91.00;;;;;;5051580;28;20675;-83
2022/05/20 03:45:10;;;;;;;9.07;3.53;;;14.00;91.00;;;;;;5051575;28;20694;-81
2022/05/20 03:47:37;;;;;;;4.80;3.20;;;14.00;91.10;;;;;;5052967;28;20273;-79
2022/05/20 03:50:05;;;;;;;8.80;3.30;;;14.00;91.40;;;;;;5051770;28;20301;-82
2022/05/20 03:52:32;;;;;;;8.30;3.40;;;14.10;91.20;;;;;;5051897;28;20205;-81
2022/05/20 03:54:59;;;;;;;7.73;3.67;;;14.10;91.40;;;;;;5051720;28;20310;-81
2022/05/20 03:57:25;;;;;;;6.93;3.00;;;14.00;91.30;;;;;;5053106;28;20191;-77
2022/05/20 03:59:52;;;;;;;7.50;3.23;;;14.10;91.40;;;;;;5051435;28;20235;-79
2022/05/20 04:02:19;;;;;;;7.40;2.73;;;14.10;91.70;;;;;;5051451;28;20233;-82
2022/05/20 04:04:50;;;;;;;5.60;2.97;;;14.10;91.70;;;;;;5052616;28;20206;-82
2022/05/20 04:07:24;;;;;;;5.90;3.13;;;14.10;91.40;;;;;;5051541;28;20202;-81
2022/05/20 04:09:52;;;;;;;6.37;2.80;;;14.10;91.70;;;;;;5035786;28;20287;-80
2022/05/20 04:12:24;;;;;;;9.17;2.80;;;14.00;91.70;;;;;;5051701;28;20225;-80
2022/05/20 04:14:53;;;;;;;4.73;2.60;;;14.10;91.80;;;;;;5050387;28;20282;-81
2022/05/20 04:17:20;;;;;;;8.13;2.80;;;14.10;91.70;;;;;;5051275;28;20209;-81
2022/05/20 04:19:47;;;;;;;6.47;3.20;;;14.10;91.70;;;;;;5051301;28;20297;-81
2022/05/20 04:22:17;;;;;;;6.73;2.80;;;14.20;91.70;;;;;;5051255;28;20646;-82
2022/05/20 04:24:44;;;;;;;7.47;2.73;;;14.20;91.70;;;;;;5051220;28;20199;-81
2022/05/20 04:27:11;;;;;;;5.10;2.60;;;14.20;91.80;;;;;;5051176;28;20610;-77
2022/05/20 04:29:38;;;;;;;6.67;2.50;;;14.30;92.00;;;;;;5051175;28;20632;-82
2022/05/20 04:32:05;;;;;;;7.80;2.57;;;14.40;92.00;;;;;;5051196;28;20294;-82
2022/05/20 04:34:32;;;;;;;6.47;3.00;;;14.50;91.60;;;;;;5051312;28;20301;-85
2022/05/20 04:36:59;;;;;;;8.50;2.50;;;14.60;91.50;;;;;;5034704;28;20561;-72
2022/05/20 04:39:26;;;;;;;10.13;3.20;;;14.60;91.20;;;;;;5051308;28;20203;-72
2022/05/20 04:47:27;;;;;;;5.40;2.40;;;15.00;91.20;;;;;;5050887;28;20206;-71
2022/05/20 04:49:55;;;;;;;6.83;2.80;;;15.10;91.20;;;;;;5051043;28;20207;-71
2022/05/20 04:52:22;;;;;;;5.67;2.93;;;15.20;90.80;;;;;;5052009;28;20298;-72
2022/05/20 04:54:50;;;;;;;6.23;2.57;;;15.40;90.70;;;;;;5050948;28;20288;-81
2022/05/20 04:57:23;;;;;;;7.27;2.97;;;15.50;90.60;;;;;;5050608;28;20285;-74
2022/05/20 04:59:51;;;;;;;3.23;2.17;;;15.70;90.30;;;;;;5050548;28;20323;-75
2022/05/20 05:02:19;;;;;;;8.00;2.70;;;15.80;90.30;;;;;;5050966;28;20236;-68
2022/05/20 05:04:46;;;;;;;8.10;2.70;;;15.90;90.00;;;;;;5050125;28;20202;-71
2022/05/20 05:07:13;;;;;;;9.13;3.10;;;16.00;89.90;;;;;;5050780;28;20562;-68
2022/05/20 05:09:42;;;;;;;6.57;2.70;;;16.00;90.10;;;;;;5050694;28;20195;-68
2022/05/20 05:12:10;;;;;;;7.67;2.80;;;16.00;90.10;;;;;;5052018;28;20218;-82
2022/05/20 05:14:45;;;;;;;5.43;2.30;;;16.10;90.40;;;;;;5050501;28;20199;-71
2022/05/20 05:17:15;;;;;;;8.40;2.40;;;16.10;90.40;;;;;;5051912;28;20348;-84
2022/05/20 05:19:46;;;;;;;9.17;2.77;;;16.20;90.50;;;;;;5050576;28;20202;-70
2022/05/20 05:22:13;;;;;;;6.57;2.20;;;16.30;90.60;;;;;;5050798;28;20747;-69
2022/05/20 05:24:40;;;;;;;7.33;2.73;;;16.40;90.50;;;;;;5052388;28;20207;-80
2022/05/20 05:27:07;;;;;;;6.53;2.30;;;16.60;90.30;;;;;;5052308;28;20289;-69
2022/05/20 05:29:35;;;;;;;11.90;2.60;;;16.70;90.40;;;;;;5054913;28;20293;-69
2022/05/20 05:32:03;;;;;;;5.33;2.33;;;16.90;90.10;;;;;;5055144;28;20285;-69
2022/05/20 05:34:30;;;;;;;7.93;2.40;;;17.00;90.30;;;;;;5056636;28;20198;-78
2022/05/20 05:36:57;;;;;;;8.00;2.30;;;17.10;89.90;;;;;;5054144;28;20260;-67
2022/05/20 05:39:24;;;;;;;4.10;2.20;;;17.30;88.80;;;;;;5054063;28;20670;-82
2022/05/20 05:41:51;;;;;;;7.20;2.10;;;17.40;88.10;;;;;;5054075;28;20526;-68
2022/05/20 05:44:18;;;;;;;5.70;2.10;;;17.50;86.80;;;;;;5053724;28;20695;-68
2022/05/20 05:46:44;;;;;;;6.53;2.30;;;17.60;87.10;;;;;;5054174;28;20382;-68
2022/05/20 05:49:11;;;;;;;8.50;2.23;;;17.70;87.10;;;;;;5053738;28;20249;-72
2022/05/20 05:51:38;;;;;;;6.80;2.10;;;17.90;86.50;;;;;;5054595;28;20270;-68
2022/05/20 05:54:05;;;;;;;5.77;2.20;;;18.00;86.10;;;;;;5053934;28;20195;-83
2022/05/20 05:56:32;;;;;;;3.63;2.10;;;18.10;85.60;;;;;;5053789;28;20199;-68
2022/05/20 05:58:58;;;;;;;11.23;2.30;;;18.30;85.10;;;;;;5055512;28;20321;-70
2022/05/20 06:01:25;;;;;;;6.70;2.00;;;18.40;84.50;;;;;;5055606;28;20207;-69
2022/05/20 06:03:52;;;;;;;5.33;2.10;;;18.60;83.50;;;;;;5055396;28;20191;-80
2022/05/20 06:06:19;;;;;;;6.77;2.07;;;18.60;82.70;;;;;;5055689;28;20740;-68
2022/05/20 06:08:46;;;;;;;5.17;2.30;;;18.70;81.80;;;;;;5055104;28;20249;-82
2022/05/20 06:11:14;;;;;;;4.73;1.80;;;18.80;81.60;;;;;;5063881;28;20205;-87
2022/05/20 06:13:41;;;;;;;6.23;2.00;;;18.90;80.40;;;;;;5056142;28;20229;-68
2022/05/20 06:16:08;;;;;;;5.97;2.07;;;18.80;80.70;;;;;;5053433;28;20238;-74
2022/05/20 06:18:40;;;;;;;8.33;2.03;;;18.80;81.30;;;;;;5054377;28;20194;-69
2022/05/20 06:21:07;;;;;;;7.03;2.17;;;18.90;81.40;;;;;;5054852;28;20226;-68
2022/05/20 06:23:34;;;;;;;6.90;2.10;;;19.20;81.00;;;;;;5061128;28;20199;-73
2022/05/20 06:26:10;;;;;;;5.17;1.93;;;19.40;80.00;;;;;;5068760;28;20578;-75
2022/05/20 06:28:43;;;;;;;9.33;2.10;;;19.70;79.10;;;;;;5054641;28;20195;-69
2022/05/20 06:31:11;;;;;;;7.73;2.30;;;19.90;78.50;;;;;;5058902;28;20804;-68
2022/05/20 06:33:39;;;;;;;4.47;2.10;;;20.10;77.90;;;;;;5053600;28;20735;-68
2022/05/20 06:41:37;;;;;;;6.03;2.47;;;20.40;75.60;;;;;;5053173;28;20767;-70
2022/05/20 06:44:04;;;;;;;9.63;2.30;;;20.50;75.70;;;;;;5053547;28;20198;-70
2022/05/20 06:46:32;;;;;;;10.50;2.30;;;20.70;75.40;;;;;;5053076;28;20286;-73
2022/05/20 06:49:00;;;;;;;5.80;2.00;;;20.80;74.10;;;;;;5052955;28;20707;-69
2022/05/20 06:51:35;;;;;;;6.80;2.30;;;20.70;74.10;;;;;;5053774;28;20564;-76
2022/05/20 06:54:04;;;;;;;3.03;2.00;;;20.80;74.40;;;;;;5052978;28;20203;-89
2022/05/20 06:56:32;;;;;;;5.20;2.10;;;20.90;74.60;;;;;;5053335;28;20739;-69
2022/05/20 06:59:00;;;;;;;5.20;2.03;;;21.00;74.90;;;;;;5057113;28;20329;-90
2022/05/20 07:01:28;;;;;;;6.57;2.20;;;21.10;73.60;;;;;;5052897;28;20317;-68
2022/05/20 07:03:58;;;;;;;7.70;2.20;;;21.00;73.20;;;;;;5053268;28;20234;-75
2022/05/20 07:06:27;;;;;;;7.93;2.20;;;21.00;73.70;;;;;;5054984;28;20552;-88
2022/05/20 07:08:54;;;;;;;7.10;2.03;;;21.00;73.60;;;;;;5059634;28;20195;-75
2022/05/20 07:11:23;;;;;;;8.00;2.17;;;21.00;73.20;;;;;;5060680;28;20617;-78
2022/05/20 07:13:55;;;;;;;6.73;2.40;;;21.00;73.30;;;;;;5057447;28;20305;-68
2022/05/20 07:16:24;;;;;;;8.93;2.50;;;21.00;73.90;;;;;;5058601;28;20285;-82
2022/05/20 07:18:52;;;;;;;10.13;2.20;;;21.00;73.90;;;;;;5052440;28;20230;-85
2022/05/20 07:21:19;;;;;;;5.53;2.17;;;21.00;75.30;;;;;;5053321;28;20691;-87
2022/05/20 07:23:46;;;;;;;6.00;2.50;;;21.20;75.10;;;;;;5064526;28;20198;-79
2022/05/20 07:26:16;;;;;;;9.37;2.57;;;21.40;75.60;;;;;;5059655;28;20190;-68
2022/05/20 07:28:43;;;;;;;9.30;2.60;;;21.40;74.00;;;;;;5061777;28;20202;-72
2022/05/20 07:31:10;;;;;;;7.07;2.10;;;21.60;74.30;;;;;;5054825;28;20222;-71
2022/05/20 07:33:37;;;;;;;6.30;2.30;;;21.80;73.60;;;;;;5052445;28;20229;-82
2022/05/20 07:36:06;;;;;;;9.67;2.80;;;22.00;73.60;;;;;;5052659;28;20309;-76
2022/05/20 07:38:34;;;;;;;10.67;2.73;;;22.00;73.00;;;;;;5052242;28;20206;-68
2022/05/20 07:41:01;;;;;;;6.30;2.30;;;21.90;73.30;;;;;;5053653;28;20738;-71
2022/05/20 07:43:28;;;;;;;6.33;2.50;;;22.00;73.10;;;;;;5052047;28;20221;-68
2022/05/20 07:45:55;;;;;;;7.57;2.70;;;21.90;73.30;;;;;;5052304;28;20221;-90
2022/05/20 07:48:22;;;;;;;5.03;2.50;;;22.00;73.50;;;;;;5052984;28;20356;-82
2022/05/20 07:50:55;;;;;;;5.90;2.40;;;22.10;73.30;;;;;;5051517;28;20272;-77
2022/05/20 07:53:33;;;;;;;5.27;2.80;;;22.30;72.30;;;;;;5051585;28;20289;-71
2022/05/20 07:56:03;;;;;;;4.33;2.40;;;22.20;73.20;;;;;;5051889;28;20198;-85
2022/05/20 07:58:36;;;;;;;7.40;2.60;;;22.10;73.60;;;;;;5052629;28;20299;-86
2022/05/20 08:01:22;;;;;;;7.07;2.67;;;22.10;73.30;;;;;;5054773;28;20218;-67
2022/05/20 08:06:45;;;;;;;5.17;2.80;;;22.20;73.20;;;;;;5057600;28;20187;-87
2022/05/20 08:09:12;;;;;;;10.33;2.60;;;22.10;74.40;;;;;;5055597;28;20241;-89
2022/05/20 08:11:39;;;;;;;8.77;3.03;;;22.10;74.20;;;;;;5054587;28;20644;-75
2022/05/20 08:14:06;;;;;;;7.90;2.63;;;22.20;74.20;;;;;;5053881;28;20234;-84
2022/05/20 08:16:33;;;;;;;6.80;2.80;;;22.50;74.60;;;;;;5052905;28;20229;-67
2022/05/20 08:19:00;;;;;;;8.23;2.83;;;23.10;72.30;;;;;;5060788;28;20215;-86
2022/05/20 08:21:27;;;;;;;7.40;3.22;;;23.70;70.40;;;;;;5053999;28;20241;-85
2022/05/20 08:23:54;;;;;;;8.05;3.00;;;24.20;69.30;;;;;;5052067;28;20297;-68
2022/05/20 08:26:21;;;;;;;16.33;3.78;;;24.60;67.90;;;;;;5054862;28;20207;-68
2022/05/20 08:28:49;;;;;;;9.57;3.03;;;25.10;65.10;;;;;;5054497;28;20191;-81
2022/05/20 08:31:16;;;;;;;9.63;3.55;;;25.40;64.80;;;;;;5054770;28;20233;-68
2022/05/20 08:33:44;;;;;;;9.02;3.25;;;25.80;64.20;;;;;;5053554;28;20202;-82
2022/05/20 08:36:11;;;;;;;6.57;3.20;;;26.20;62.40;;;;;;5052999;28;20668;-70
2022/05/20 08:38:40;;;;;;;8.18;3.10;;;25.60;62.60;;;;;;5055415;28;20234;-70
2022/05/20 08:41:08;;;;;;;8.38;3.20;;;25.50;63.50;;;;;;5051079;28;20199;-71
2022/05/20 08:43:37;;;;;;;6.80;3.15;;;26.10;63.10;;;;;;5052278;28;20195;-68
2022/05/20 08:46:07;;;;;;;7.07;3.30;;;26.20;61.50;;;;;;5054713;28;20274;-86
2022/05/20 08:48:35;;;;;;;7.55;3.08;;;26.40;61.30;;;;;;5051614;28;20199;-75
2022/05/20 08:51:02;;;;;;;5.55;3.42;;;27.00;60.90;;;;;;5051214;28;20209;-73
2022/05/20 08:53:37;;;;;;;7.93;3.13;;;27.20;59.80;;;;;;5050674;28;20288;-79
2022/05/20 08:56:13;;;;;;;8.15;3.40;;;27.50;58.80;;;;;;5050583;28;20558;-70
2022/05/20 08:58:52;;;;;;;12.48;3.20;;;27.50;58.20;;;;;;5055895;28;20707;-69
2022/05/20 09:01:31;;;;;;;8.15;3.08;;;26.90;59.40;;;;;;5052195;28;20229;-79
2022/05/20 09:03:59;;;;;;;6.13;3.17;;;27.20;59.70;;;;;;5054434;28;20263;-76
2022/05/20 09:06:27;;;;;;;7.15;3.10;;;27.30;59.30;;;;;;5054309;28;20297;-75
2022/05/20 09:09:14;;;;;;;10.10;3.58;;;27.90;59.40;;;;;;5055245;28;20237;-81
2022/05/20 09:11:42;;;;;;;7.97;3.05;;;27.50;58.60;;;;;;5054538;28;20538;-68
2022/05/20 09:17:14;;;;;;;6.15;3.22;;;26.80;59.30;;;;;;5054376;28;20230;-70
2022/05/20 09:19:56;;;;;;;8.02;3.40;;;26.70;60.10;;;;;;5054370;28;20232;-75
2022/05/20 09:22:32;;;;;;;13.57;3.05;;;27.20;60.50;;;;;;5054268;28;20228;-71
2022/05/20 09:24:59;;;;;;;5.93;3.10;;;27.40;59.20;;;;;;5055610;28;20194;-82
2022/05/20 09:27:30;;;;;;;8.52;3.38;;;27.40;58.90;;;;;;5056310;28;20594;-83
2022/05/20 09:30:07;;;;;;;7.28;3.60;;;27.40;58.80;;;;;;5056371;28;20198;-85
2022/05/20 09:32:34;;;;;;;7.50;3.53;;;27.50;59.90;;;;;;5064096;28;20225;-88
2022/05/20 09:35:13;;;;;;;8.65;3.10;;;27.90;58.70;;;;;;5055992;28;20373;-76
2022/05/20 09:37:41;;;;;;;7.93;3.70;;;28.10;58.80;;;;;;5054053;28;20197;-81
2022/05/20 09:40:33;;;;;;;8.25;3.45;;;28.50;57.80;;;;;;5054799;28;20191;-72
2022/05/20 09:43:28;;;;;;;11.48;3.55;;;28.50;57.90;;;;;;5054159;28;20222;-72
2022/05/20 09:45:59;;;;;;;6.35;3.63;;;28.20;58.00;;;;;;5054167;28;20206;-83
2022/05/20 09:48:38;;;;;;;8.52;3.60;;;28.20;57.80;;;;;;5054082;28;20197;-70
2022/05/20 09:51:39;;;;;;;9.75;3.65;;;28.10;57.60;;;;;;5054048;28;20234;-71
2022/05/20 09:54:19;;;;;;;9.23;3.58;;;28.40;57.50;;;;;;5034750;28;20637;-79
2022/05/20 09:56:57;;;;;;;8.85;3.90;;;28.30;57.70;;;;;;5035663;28;20191;-89
2022/05/20 09:59:55;;;;;;;9.35;3.70;;;28.60;57.50;;;;;;5033884;28;20250;-71
2022/05/20 10:02:31;;;;;;;9.52;3.53;;;28.70;57.30;;;;;;5017436;28;20318;-89
2022/05/20 10:05:17;;;;;;;7.22;3.47;;;29.20;56.00;;;;;;5035051;28;20618;-72
2022/05/20 10:07:54;;;;;;;9.25;3.65;;;29.40;55.20;;;;;;5052011;28;20298;-90
2022/05/20 10:10:47;;;;;;;9.60;3.67;;;29.60;54.90;;;;;;5036390;28;20279;-83
2022/05/20 10:13:27;;;;;;;9.85;3.50;;;29.20;55.70;;;;;;5034541;28;20227;-88
2022/05/20 10:16:13;;;;;;;10.23;3.65;;;29.10;55.20;;;;;;5034573;28;20624;-78
2022/05/20 10:18:55;;;;;;;5.93;3.78;;;29.30;54.50;;;;;;5034324;28;20207;-86
2022/05/20 10:21:39;;;;;;;12.07;3.83;;;29.10;54.90;;;;;;5035710;28;20265;-71
2022/05/20 10:24:14;;;;;;;6.93;3.78;;;29.40;54.80;;;;;;5054722;28;20245;-85
2022/05/20 10:26:50;;;;;;;11.65;3.50;;;29.90;54.80;;;;;;5058506;28;20194;-83
2022/05/20 10:32:42;;;;;;;8.00;3.90;;;30.80;54.50;;;;;;5065389;28;20217;-82
2022/05/20 10:35:14;;;;;;;7.75;3.63;;;30.70;53.60;;;;;;5067244;28;20199;-83
2022/05/20 10:37:51;;;;;;;6.15;3.70;;;30.20;54.70;;;;;;5073199;28;20206;-85
2022/05/20 10:40:51;;;;;;;7.90;3.58;;;30.00;55.20;;;;;;5052585;28;20243;-71
2022/05/20 10:43:26;;;;;;;6.50;3.50;;;29.50;56.70;;;;;;5073343;28;20229;-90
2022/05/20 10:48:48;;;;;;;9.63;3.40;;;30.10;56.70;;;;;;5060921;28;20202;-76
2022/05/20 10:51:37;;;;;;;5.55;2.95;;;30.40;56.50;;;;;;5061746;28;20226;-88
2022/05/20 10:54:16;;;;;;;6.18;3.00;;;30.90;55.70;;;;;;5057866;28;20206;-79
2022/05/20 10:56:57;;;;;;;6.30;2.78;;;31.30;55.60;;;;;;5059247;28;20194;-86
2022/05/20 10:59:36;;;;;;;4.47;2.58;;;31.50;54.60;;;;;;5056933;28;20281;-84
2022/05/20 11:02:25;;;;;;;6.38;3.15;;;31.30;54.60;;;;;;5055132;28;20261;-77
2022/05/20 11:05:26;;;;;;;7.28;2.83;;;31.30;54.80;;;;;;5056209;28;20301;-72
2022/05/20 11:08:18;;;;;;;6.20;2.83;;;30.60;56.00;;;;;;5057338;28;20299;-80
2022/05/20 11:10:56;;;;;;;5.95;2.80;;;30.30;56.20;;;;;;5062665;28;20214;-90
2022/05/20 11:13:51;;;;;;;6.03;2.70;;;30.70;56.40;;;;;;5056095;28;20305;-72
2022/05/20 11:16:54;;;;;;;4.57;3.03;;;30.70;60.50;;;;;;5052135;28;20194;-71
2022/05/20 11:19:58;;;;;;;9.45;3.10;;;30.70;59.40;;;;;;5053303;28;20195;-73
2022/05/20 11:23:03;;;;;;;8.93;3.00;;;30.60;60.50;;;;;;5052494;28;20276;-74
2022/05/20 11:25:46;;;;;;;4.00;3.25;;;30.60;60.80;;;;;;5052828;28;20667;-73
2022/05/20 11:28:13;;;;;;;6.55;2.95;;;30.50;59.90;;;;;;5052374;28;20302;-74
2022/05/20 11:31:08;;;;;;;12.93;4.53;;;30.40;62.60;;;;;;5051918;28;20297;-75
2022/05/20 11:34:01;;;;;;;6.25;3.17;;;30.90;60.30;;;;;;5051984;28;20221;-76
2022/05/20 11:36:46;;;;;;;5.65;3.10;;;30.90;59.90;;;;;;5050950;28;20290;-71
2022/05/20 11:40:00;;;;;;;4.07;2.90;;;30.60;61.40;;;;;;5052119;28;20222;-73
2022/05/20 11:42:47;;;;;;;4.20;3.00;;;31.10;60.70;;;;;;5010993;28;20783;-73
2022/05/20 11:45:40;;;;;;;9.15;3.38;;;31.70;61.20;;;;;;5010856;28;20200;-73
2022/05/20 11:48:25;;;;;;;7.07;2.80;;;32.30;58.70;;;;;;5010661;28;20286;-70
2022/05/20 11:51:14;;;;;;;8.52;2.90;;;32.00;57.60;;;;;;5010579;28;20669;-70
2022/05/20 11:54:08;;;;;;;5.95;3.00;;;31.70;57.20;;;;;;4994623;28;20292;-68
2022/05/20 11:56:40;;;;;;;6.25;3.10;;;31.60;57.60;;;;;;5010935;28;20200;-77
2022/05/20 11:59:32;;;;;;;4.60;3.10;;;31.60;58.30;;;;;;5010648;28;20228;-80
2022/05/20 12:02:00;;;;;;;7.28;3.20;;;31.80;57.50;;;;;;5011157;28;20287;-80
2022/05/20 12:04:34;;;;;;;7.80;3.17;;;31.60;57.10;;;;;;4994477;28;20214;-81
2022/05/20 12:07:14;;;;;;;8.80;2.90;;;30.80;56.40;;;;;;5010616;28;20195;-77
2022/05/20 12:09:47;;;;;;;8.93;3.00;;;31.00;59.20;;;;;;5011216;28;20707;-81
2022/05/20 12:12:27;;;;;;;7.93;3.38;;;31.40;57.50;;;;;;5010557;28;20315;-71
2022/05/20 12:14:58;;;;;;;11.68;3.60;;;30.80;57.00;;;;;;5010695;28;20609;-74
2022/05/20 12:17:46;;;;;;;7.60;3.13;;;30.50;57.70;;;;;;5028862;28;20230;-70
2022/05/20 12:26:16;;;;;;;9.90;3.38;;;31.30;56.40;;;;;;5049454;28;20194;-71
2022/05/20 12:28:44;;;;;;;6.45;3.08;;;30.70;55.80;;;;;;5052144;28;20248;-71
2022/05/20 12:31:13;;;;;;;5.38;2.78;;;30.80;56.30;;;;;;5055929;28;20530;-84
2022/05/20 12:34:10;;;;;;;5.03;2.90;;;31.20;55.30;;;;;;5052778;28;20195;-85
2022/05/20 12:36:40;;;;;;;8.13;3.20;;;31.50;54.70;;;;;;5050441;28;20293;-77
2022/05/20 12:39:12;;;;;;;6.28;2.70;;;31.70;54.70;;;;;;5051492;28;20195;-83
2022/05/20 12:41:50;;;;;;;4.22;2.60;;;32.00;54.80;;;;;;5051422;28;20206;-77
2022/05/20 12:44:17;;;;;;;7.63;2.75;;;32.10;52.60;;;;;;5051275;28;20283;-73
2022/05/20 12:47:05;;;;;;;4.43;2.28;;;32.00;52.80;;;;;;5050853;28;20191;-83
2022/05/20 12:49:46;;;;;;;4.72;2.20;;;31.70;51.80;;;;;;5051179;28;20555;-70
2022/05/20 12:52:28;;;;;;;5.57;2.40;;;31.40;52.20;;;;;;5052086;28;20302;-71
2022/05/20 12:55:19;;;;;;;6.70;2.67;;;31.80;52.50;;;;;;5050852;28;20295;-84
2022/05/20 12:57:58;;;;;;;5.18;2.40;;;32.20;50.90;;;;;;5053886;28;20233;-75
2022/05/20 13:00:31;;;;;;;5.85;2.30;;;32.00;51.30;;;;;;5050718;28;20225;-81
2022/05/20 13:03:16;;;;;;;3.72;2.60;;;31.50;52.10;;;;;;5056794;28;20253;-80
2022/05/20 13:05:52;;;;;;;4.75;2.42;;;31.70;52.50;;;;;;5054234;28;20202;-85
2022/05/20 13:08:27;;;;;;;6.75;2.40;;;32.00;51.00;;;;;;5051392;28;20694;-83
2022/05/20 13:10:54;;;;;;;8.30;3.03;;;32.10;51.10;;;;;;5052499;28;20234;-70
2022/05/20 13:13:24;;;;;;;6.97;2.80;;;32.50;51.00;;;;;;5051828;28;20230;-71
2022/05/20 13:15:55;;;;;;;5.20;2.30;;;32.90;50.40;;;;;;5050915;28;20258;-70
2022/05/20 13:18:37;;;;;;;8.40;2.40;;;32.90;49.70;;;;;;5051421;28;20199;-80
2022/05/20 13:21:16;;;;;;;7.93;2.72;;;32.80;49.50;;;;;;5051114;28;20622;-75
2022/05/20 13:23:47;;;;;;;8.68;2.70;;;32.20;50.90;;;;;;5051510;28;20231;-80
2022/05/20 13:26:23;;;;;;;3.97;2.47;;;31.70;51.50;;;;;;5052016;28;20287;-70
2022/05/20 13:28:51;;;;;;;4.55;2.53;;;32.20;51.10;;;;;;5050708;28;20634;-70
2022/05/20 13:31:23;;;;;;;6.55;2.42;;;32.80;50.30;;;;;;5050569;28;20645;-71
2022/05/20 13:33:51;;;;;;;8.93;2.70;;;33.10;49.00;;;;;;5051308;28;20234;-80
2022/05/20 13:36:22;;;;;;;6.20;2.50;;;32.70;48.90;;;;;;5051360;28;20281;-71
2022/05/20 13:38:54;;;;;;;7.18;2.30;;;32.40;49.10;;;;;;5050689;28;20298;-69
2022/05/20 13:41:27;;;;;;;4.82;2.25;;;32.50;48.80;;;;;;5050135;28;20265;-70
2022/05/20 13:43:55;;;;;;;5.35;2.35;;;32.30;48.90;;;;;;5050111;28;20314;-69
2022/05/20 13:49:18;;;;;;;9.60;2.20;;;32.40;48.30;;;;;;5054973;28;20202;-70
2022/05/20 13:51:47;;;;;;;5.10;2.13;;;33.00;46.90;;;;;;5055059;28;20293;-70
2022/05/20 13:54:23;;;;;;;4.72;2.20;;;33.30;46.90;;;;;;5053629;28;20627;-77